createdAt,value
2023-04-15T00:03:59.822Z,18.10
2023-04-15T00:09:56.822Z,17.10
2023-04-15T00:15:00.583Z,14.20
2023-04-15T00:20:06.950Z,16.00
2023-04-15T00:25:10.874Z,15.90
2023-04-15T00:30:14.684Z,14.90
2023-04-15T00:35:19.184Z,14.20
2023-04-15T00:40:25.328Z,13.50
2023-04-15T00:52:33.774Z,15.70
2023-04-15T00:57:38.223Z,16.20
2023-04-15T01:02:42.708Z,13.30
2023-04-15T01:21:43.860Z,15.90
2023-04-15T01:26:50.314Z,15.90
2023-04-15T01:32:31.548Z,17.70
2023-04-15T01:37:35.856Z,18.00
2023-04-15T01:42:48.432Z,15.90
2023-04-15T01:47:52.134Z,11.50
2023-04-15T01:53:02.366Z,16.70
2023-04-15T01:58:06.514Z,16.70
2023-04-15T02:03:10.319Z,15.70
2023-04-15T02:08:13.871Z,15.60
2023-04-15T02:13:17.658Z,16.00
2023-04-15T02:18:22.054Z,15.80
2023-04-15T02:23:53.611Z,11.80
2023-04-15T02:28:57.681Z,13.10
2023-04-15T02:48:44.373Z,15.00
2023-04-15T02:54:06.438Z,14.60
2023-04-15T02:59:10.060Z,17.00
2023-04-15T03:11:41.093Z,14.60
2023-04-15T03:16:44.729Z,12.80
2023-04-15T03:21:48.622Z,16.10
2023-04-15T03:27:18.959Z,10.40
2023-04-15T03:32:22.608Z,13.90
2023-04-15T03:37:31.873Z,14.60
2023-04-15T03:42:35.452Z,15.00
2023-04-15T03:47:45.073Z,10.20
2023-04-15T03:52:50.692Z,12.30
2023-04-15T03:57:54.923Z,13.50
2023-04-15T04:02:58.935Z,13.30
2023-04-15T04:08:14.242Z,14.10
2023-04-15T04:13:18.163Z,10.70
2023-04-15T04:18:23.039Z,11.60
2023-04-15T04:23:27.271Z,14.30
2023-04-15T04:28:33.862Z,13.50
2023-04-15T04:33:37.484Z,12.20
2023-04-15T04:38:47.292Z,12.60
2023-04-15T04:43:51.266Z,10.60
2023-04-15T04:48:54.946Z,13.30
2023-04-15T04:53:59.131Z,10.80
2023-04-15T04:59:09.814Z,13.90
2023-04-15T05:04:13.525Z,9.30
2023-04-15T05:09:23.198Z,7.60
2023-04-15T05:14:26.924Z,12.60
2023-04-15T05:19:30.852Z,15.50
2023-04-15T05:24:34.507Z,14.40
2023-04-15T05:30:03.386Z,14.70
2023-04-15T05:35:08.444Z,15.20
2023-04-15T05:40:12.687Z,15.80
2023-04-15T05:45:16.318Z,17.90
2023-04-15T05:50:21.566Z,18.00
2023-04-15T05:55:25.401Z,16.20
2023-04-15T06:00:29.360Z,21.40
2023-04-15T06:05:33.357Z,42.60
2023-04-15T06:10:38.011Z,19.50
2023-04-15T06:23:46.563Z,20.20
2023-04-15T06:28:50.414Z,21.00
2023-04-15T06:38:37.694Z,14.70
2023-04-15T06:55:10.373Z,23.00
2023-04-15T07:00:15.253Z,24.90
2023-04-15T07:05:19.706Z,18.50
2023-04-15T07:20:18.348Z,15.80
2023-04-15T07:25:22.078Z,19.60
2023-04-15T07:30:31.729Z,16.60
2023-04-15T07:35:35.496Z,16.90
2023-04-15T07:54:54.687Z,27.60
2023-04-15T08:04:44.471Z,18.30
2023-04-15T08:16:51.959Z,14.20
2023-04-15T08:21:56.811Z,16.60
2023-04-15T08:27:02.253Z,19.00
2023-04-15T08:32:07.021Z,25.10
2023-04-15T08:37:11.489Z,74.30
2023-04-15T08:42:47.108Z,40.10
2023-04-15T08:47:57.034Z,62.60
2023-04-15T08:53:01.576Z,108.80
2023-04-15T08:58:07.154Z,46.40
2023-04-15T09:03:11.738Z,53.50
2023-04-15T09:09:58.751Z,25.60
2023-04-15T09:15:04.737Z,21.50
2023-04-15T09:20:15.073Z,26.70
2023-04-15T09:32:17.249Z,14.80
2023-04-15T09:37:36.921Z,18.20
2023-04-15T09:42:57.445Z,21.70
2023-04-15T09:48:21.294Z,32.90
2023-04-15T10:15:08.100Z,20.60
2023-04-15T10:20:16.624Z,38.10
2023-04-15T10:32:22.658Z,14.90
2023-04-15T10:37:39.818Z,23.00
2023-04-15T10:42:44.642Z,15.40
2023-04-15T10:48:47.236Z,14.50
2023-04-15T10:55:17.147Z,13.40
2023-04-15T11:00:32.286Z,20.10
2023-04-15T11:13:33.800Z,14.90
2023-04-15T11:18:57.898Z,16.10
2023-04-15T11:24:53.020Z,17.80
2023-04-15T11:30:27.041Z,20.10
2023-04-15T11:35:31.545Z,18.40
2023-04-15T11:40:36.256Z,15.30
2023-04-15T11:46:00.074Z,22.00
2023-04-15T11:51:10.224Z,26.80
2023-04-15T11:57:04.483Z,20.10
2023-04-15T12:09:17.370Z,21.20
2023-04-15T12:29:44.464Z,15.00
2023-04-15T12:34:54.780Z,27.70
2023-04-15T12:39:58.318Z,17.60
2023-04-15T12:52:09.936Z,20.40
2023-04-15T12:58:33.766Z,23.90
2023-04-15T13:03:37.779Z,23.90
2023-04-15T13:09:33.438Z,53.90
2023-04-15T13:14:37.169Z,32.40
2023-04-15T13:19:41.026Z,51.70
2023-04-15T13:24:44.651Z,72.20
2023-04-15T13:29:48.260Z,29.70
2023-04-15T13:49:12.625Z,22.10
2023-04-15T13:54:16.271Z,23.90
2023-04-15T14:08:15.184Z,29.70
2023-04-15T14:13:19.973Z,34.00
2023-04-15T14:18:23.650Z,20.40
2023-04-15T14:23:27.542Z,23.80
2023-04-15T14:28:45.234Z,49.10
2023-04-15T14:42:33.671Z,23.70
2023-04-15T14:47:38.570Z,29.20
2023-04-15T14:53:23.280Z,35.20
2023-04-15T14:58:26.921Z,33.40
2023-04-15T15:10:49.049Z,49.90
2023-04-15T15:15:54.169Z,37.40
2023-04-15T15:39:51.091Z,58.70
2023-04-15T15:44:56.294Z,53.30
2023-04-15T15:57:05.456Z,50.90
2023-04-15T16:07:18.607Z,34.90
2023-04-15T16:32:44.684Z,43.90
2023-04-15T16:38:38.336Z,37.00
2023-04-15T16:44:31.865Z,41.60
2023-04-15T16:49:35.865Z,88.90
2023-04-15T16:54:41.661Z,26.10
2023-04-15T16:59:45.153Z,45.20
2023-04-15T17:04:48.619Z,16.70
2023-04-15T17:09:53.793Z,19.20
2023-04-15T17:14:58.329Z,25.30
2023-04-15T17:20:02.075Z,23.20
2023-04-15T17:32:47.630Z,14.80
2023-04-15T17:45:19.981Z,17.70
2023-04-15T18:06:01.757Z,22.50
2023-04-15T18:11:24.432Z,14.30
2023-04-15T18:16:28.112Z,10.70
2023-04-15T18:21:32.348Z,15.80
2023-04-15T18:26:36.542Z,11.30
2023-04-15T18:31:40.227Z,10.10
2023-04-15T18:36:44.019Z,8.60
2023-04-15T18:41:51.250Z,19.60
2023-04-15T18:46:54.905Z,9.90
2023-04-15T18:51:58.559Z,11.10
2023-04-15T18:57:52.724Z,9.00
2023-04-15T19:02:57.039Z,28.20
2023-04-15T19:08:01.489Z,14.90
2023-04-15T19:13:06.642Z,11.20
2023-04-15T19:18:10.994Z,9.00
2023-04-15T19:23:15.346Z,11.50
2023-04-15T19:28:19.112Z,11.60
2023-04-15T19:33:23.186Z,6.80
2023-04-15T19:38:26.975Z,6.30
2023-04-15T19:43:46.226Z,9.30
2023-04-15T19:54:36.401Z,9.90
2023-04-15T19:59:40.059Z,12.00
2023-04-15T20:05:14.094Z,13.90
2023-04-15T20:10:47.225Z,13.70
2023-04-15T20:16:08.037Z,8.10
2023-04-15T20:21:11.737Z,13.60
2023-04-15T20:26:18.086Z,12.90
2023-04-15T20:31:23.311Z,10.70
2023-04-15T20:36:53.113Z,14.30
2023-04-15T20:42:03.277Z,13.40
2023-04-15T20:47:08.592Z,11.40
2023-04-15T20:52:18.682Z,9.70
2023-04-15T20:58:39.605Z,17.30
2023-04-15T21:03:43.313Z,10.50
2023-04-15T21:08:47.340Z,9.40
2023-04-15T21:13:52.150Z,10.60
2023-04-15T21:33:39.034Z,8.10
2023-04-15T21:38:42.707Z,5.30
2023-04-15T21:44:26.693Z,9.60
2023-04-15T21:49:30.442Z,7.00
2023-04-15T22:01:42.453Z,8.40
2023-04-15T22:22:21.806Z,9.10
2023-04-15T22:27:39.299Z,10.90
2023-04-15T22:32:43.297Z,11.30
2023-04-15T22:37:53.367Z,10.00
2023-04-15T22:42:57.128Z,9.30
2023-04-15T22:48:00.866Z,10.20
2023-04-15T22:53:04.628Z,11.70
2023-04-15T22:58:08.227Z,12.80
2023-04-15T23:03:11.926Z,14.20
2023-04-15T23:08:34.808Z,10.00
2023-04-15T23:13:38.562Z,9.70
2023-04-15T23:18:42.394Z,11.00
2023-04-15T23:23:46.123Z,9.00
2023-04-15T23:29:14.755Z,9.40
2023-04-15T23:34:18.177Z,7.40
2023-04-15T23:39:21.826Z,9.00
2023-04-15T23:44:25.488Z,7.80
2023-04-15T23:49:29.121Z,6.70
2023-04-15T23:54:32.970Z,6.40
2023-04-15T23:59:36.969Z,5.40
